Detall de PIREP

Printer-friendly versionPDF version

[2013/04/11 08:54:00]
Flight IATA:CT3241
Pilot Number:042
Company ICAO:CAT
Aircraft Type:B744/E
PAX:0
Departing Airport: LIRF
Destination Airport: LEPA
Alternate Airport:LEBL
Online: VATSIM
Route:ESINO UZ924 RIPAL UM603 MORSS
Flight Level:F340
No Slew and time accel
No pause
Crash detect
Detect pilot in Cockpit between each 30 and 45 minutes
08:54 Zero fuel Weight: 394089 Lbs, Fuel Weight: 115580 Lbs
08:54 VATSIM:LIRF 110820Z 16009KT 130V200 9999 BKN020 16/10 Q1017 NOSIG
08:54 VATSIM:LEPA 110830Z 22008KT 180V250 9999 FEW022 17/15 Q1015 NOSIG
08:54 VOICE CATALONIAN
09:04 Parking Brakes off
09:17 Take-off
09:17 Take off Weight: 506751 Lbs
09:17 Wind: 029º @ 004 Knots Heading: 160º
09:17 POS N41º 50´ 08´´ E012º 16´ 03´´
09:17 Gear Up: 195 Knots
09:17 Flaps:4 at 195 Knots
09:17 Flaps:3 at 217 Knots
09:18 Flaps:2 at 196 Knots
09:19 Flaps:1 at 249 Knots
09:20 Flaps:0 at 253 Knots
09:28 TOC
09:28 Fuel Weight: 103598 Lb
09:32 Wind:302º@086 Knots Heading: 257º Ground Speed: 423 Knots Altitude 34091 ft
09:47 Wind:311º@083 Knots Heading: 260º Ground Speed: 429 Knots Altitude 34107 ft
10:02 Wind:305º@070 Knots Heading: 266º Ground Speed: 425 Knots Altitude 34078 ft
10:09 TOD
10:09 Fuel Weight: 90179 Lb
10:17 Wind:309º@046 Knots Heading: 260º Ground Speed: 327 Knots Altitude 18969 ft
10:25 Flaps:1 at 216 Knots
10:26 Flaps:2 at 193 Knots
10:29 Flaps:3 at 177 Knots
10:29 Gear Down: 176 Knots
10:29 Flaps:4 at 170 Knots
10:29 Flaps:5 at 152 Knots
10:29 Flaps:6 at 141 Knots
10:32 Wind:232º@008 Knots Heading: 237º Ground Speed: 126 Knots Altitude 521 ft
10:32 TouchDown:Rate -89 ft/min Speed: 128 Knots
10:33 VATSIM:LEPA 111000Z 22012KT 9999 FEW004 17/15 Q1015 NOSIG
10:33 Land
10:33 Wind:232º@008 Knots
10:33 Heading: 238º
10:33 Flight Duration: 01:16
10:33 Landing Weight: 479907 Lbs
10:33 POS N39º 32´ 58´´ E002º 44´ 57´´
10:39 Parking brakes on
10:39 Block to Block Duration: 01:35
10:39 Final Fuel: 84576 Lbls
10:39 Spent Fuel: 31003 Lbls
10:39 Flight Length: 465 NM
10:39 TOD Land Length: 108 NM

Exportar CSV

Powered by Drupal - Modified by Danger4k